Time;durP1;ratioP1;P1;durP2;ratioP2;P2;SDS_P1;SDS_P2;PMS_P1;PMS_P2;Temp;Humidity;BMP_temperature;BMP_pressure;BME280_temperature;BME280_humidity;BME280_pressure;Samples;Min_cycle;Max_cycle;Signal;HPM_P1;HPM_P2
2022/08/26 00:01:16;;;;;;;7.90;2.90;;;;;;;28.99;36.30;100254.23;104671;1305;62089;-82
2022/08/26 00:03:42;;;;;;;5.70;2.60;;;;;;;28.98;36.30;100251.39;104867;1305;61370;-83
2022/08/26 00:06:07;;;;;;;5.90;2.90;;;;;;;28.99;36.17;100252.08;104766;1305;61293;-82
2022/08/26 00:08:33;;;;;;;7.70;2.80;;;;;;;28.99;36.51;100246.48;104545;1306;61309;-82
2022/08/26 00:10:59;;;;;;;6.70;3.00;;;;;;;28.98;36.57;100247.76;104769;1305;74647;-83
2022/08/26 00:13:25;;;;;;;6.10;2.70;;;;;;;28.98;36.42;100240.76;104830;1305;61331;-84
2022/08/26 00:15:51;;;;;;;5.40;2.30;;;;;;;28.98;36.35;100239.26;104778;1305;61373;-83
2022/08/26 00:18:17;;;;;;;6.90;2.80;;;;;;;28.98;36.61;100244.20;104634;1305;60081;-82
2022/08/26 00:20:43;;;;;;;8.70;2.80;;;;;;;28.98;36.43;100240.25;104616;1305;61310;-82
2022/08/26 00:23:09;;;;;;;6.10;2.70;;;;;;;28.98;36.49;100241.13;104587;1305;61301;-82
2022/08/26 00:25:35;;;;;;;5.40;2.80;;;;;;;28.98;36.48;100240.38;104666;1305;61352;-82
2022/08/26 00:28:02;;;;;;;6.60;2.80;;;;;;;28.97;36.47;100237.90;104649;1306;61189;-82
2022/08/26 00:30:28;;;;;;;8.90;3.10;;;;;;;28.97;36.39;100235.52;104785;1305;61361;-83
2022/08/26 00:32:54;;;;;;;6.10;2.60;;;;;;;28.97;36.29;100227.95;104555;1306;61499;-83
2022/08/26 00:35:20;;;;;;;8.30;2.40;;;;;;;28.98;36.38;100227.17;104689;1305;62080;-84
2022/08/26 00:37:45;;;;;;;6.80;2.50;;;;;;;28.97;36.50;100225.23;104649;1305;61576;-84
2022/08/26 00:40:14;;;;;;;7.00;2.60;;;;;;;28.97;36.52;100222.90;104663;1306;61348;-83
2022/08/26 00:42:41;;;;;;;;;;;;;;;28.97;36.72;100223.05;104799;1305;75759;-82
2022/08/26 00:45:06;;;;;;;7.10;2.50;;;;;;;28.95;36.26;100222.44;104817;1305;61212;-81
2022/08/26 00:47:36;;;;;;;7.20;2.70;;;;;;;28.96;36.60;100222.18;104587;1305;61333;-81
2022/08/26 00:50:04;;;;;;;6.90;2.40;;;;;;;28.96;36.45;100222.19;104487;1308;73289;-82
2022/08/26 00:52:31;;;;;;;6.80;2.80;;;;;;;28.96;36.68;100226.13;104571;1307;74767;-83
2022/08/26 00:55:16;;;;;;;7.90;3.00;;;;;;;28.95;36.58;100220.02;104768;1304;61416;-82
2022/08/26 00:57:42;;;;;;;5.90;2.90;;;;;;;28.96;36.61;100221.58;104864;1305;62700;-83
2022/08/26 01:00:18;;;;;;;9.30;2.80;;;;;;;28.96;36.76;100217.23;104691;1305;59433;-82
2022/08/26 01:02:44;;;;;;;7.20;2.60;;;;;;;28.96;36.60;100216.14;104639;1305;74778;-82
2022/08/26 01:05:10;;;;;;;7.70;2.70;;;;;;;28.96;36.58;100216.31;104649;1305;61351;-83
2022/08/26 01:07:36;;;;;;;7.60;2.80;;;;;;;28.96;36.75;100217.98;104559;1305;61303;-83
2022/08/26 01:10:05;;;;;;;6.80;2.80;;;;;;;28.96;36.80;100215.26;104654;1306;61299;-83
2022/08/26 01:12:32;;;;;;;7.50;2.50;;;;;;;28.96;36.68;100213.63;104644;1305;75893;-84
2022/08/26 01:14:58;;;;;;;5.40;2.40;;;;;;;28.96;36.47;100212.51;104801;1305;61640;-82
2022/08/26 01:17:24;;;;;;;5.60;2.30;;;;;;;28.96;36.63;100211.65;104777;1305;61284;-83
2022/08/26 01:19:52;;;;;;;5.70;2.70;;;;;;;28.96;36.57;100212.16;104595;1305;61424;-83
2022/08/26 01:22:21;;;;;;;6.90;2.70;;;;;;;28.96;36.52;100211.11;104772;1305;76129;-83
2022/08/26 01:24:46;;;;;;;5.40;2.40;;;;;;;28.96;36.64;100209.86;104585;1305;61180;-82
2022/08/26 01:27:13;;;;;;;6.50;2.70;;;;;;;28.95;36.68;100210.43;104644;1305;61301;-82
2022/08/26 01:29:41;;;;;;;5.80;2.60;;;;;;;28.95;36.71;100212.41;104648;1306;61397;-82
2022/08/26 01:32:08;;;;;;;8.10;2.90;;;;;;;28.95;36.72;100214.62;104614;1305;74788;-82
2022/08/26 01:34:35;;;;;;;4.90;2.60;;;;;;;28.95;36.69;100213.73;104584;1305;61579;-82
2022/08/26 01:37:32;;;;;;;5.80;2.70;;;;;;;28.95;36.72;100214.82;104582;1305;61610;-82
2022/08/26 01:39:57;;;;;;;4.90;2.40;;;;;;;28.94;36.63;100211.83;104567;1306;73069;-81
2022/08/26 01:42:23;;;;;;;7.40;2.70;;;;;;;28.94;36.77;100216.35;104777;1305;61324;-82
2022/08/26 01:45:14;;;;;;;5.50;2.50;;;;;;;28.94;36.54;100209.45;104695;1305;61323;-82
2022/08/26 01:47:40;;;;;;;8.00;3.00;;;;;;;28.94;36.72;100211.29;104822;1305;61627;-84
2022/08/26 01:50:09;;;;;;;6.30;2.50;;;;;;;28.94;36.60;100213.81;104701;1305;61307;-83
2022/08/26 01:52:36;;;;;;;5.60;2.50;;;;;;;28.94;36.82;100215.27;104542;1305;74649;-83
2022/08/26 01:55:03;;;;;;;6.60;2.80;;;;;;;28.94;36.57;100212.73;104622;1306;61569;-83
2022/08/26 01:57:28;;;;;;;7.30;2.90;;;;;;;28.94;36.71;100204.73;104621;1305;61222;-83
2022/08/26 01:59:55;;;;;;;6.20;2.70;;;;;;;28.94;36.51;100210.75;104603;1306;61271;-82
2022/08/26 02:02:20;;;;;;;8.10;2.60;;;;;;;28.93;36.55;100212.27;104612;1305;61407;-83
2022/08/26 02:04:51;;;;;;;7.60;2.50;;;;;;;28.94;36.48;100210.59;104827;1305;61288;-82
2022/08/26 02:07:18;;;;;;;6.60;2.50;;;;;;;28.94;36.59;100214.39;104649;1305;61296;-82
2022/08/26 02:09:44;;;;;;;5.60;2.30;;;;;;;28.93;36.54;100220.02;104769;1305;73870;-84
2022/08/26 02:12:10;;;;;;;5.50;2.30;;;;;;;28.93;36.50;100216.63;104780;1305;61718;-81
2022/08/26 02:14:37;;;;;;;7.60;2.30;;;;;;;28.93;36.55;100212.46;104596;1306;61273;-84
2022/08/26 02:17:05;;;;;;;5.60;3.10;;;;;;;28.93;36.59;100211.58;104881;1305;61231;-83
2022/08/26 02:19:33;;;;;;;6.50;2.40;;;;;;;28.93;36.60;100207.97;104746;1305;71756;-83
2022/08/26 02:22:00;;;;;;;7.70;2.60;;;;;;;28.92;36.58;100212.70;104796;1305;75970;-83
2022/08/26 02:24:28;;;;;;;5.20;2.50;;;;;;;28.92;36.52;100213.44;104630;1305;61634;-83
2022/08/26 02:26:55;;;;;;;7.90;2.80;;;;;;;28.93;36.72;100212.86;104639;1305;61384;-83
2022/08/26 02:29:31;;;;;;;7.40;2.70;;;;;;;28.93;36.46;100215.78;104781;1305;73776;-83
2022/08/26 02:31:57;;;;;;;5.80;2.70;;;;;;;28.92;36.39;100214.56;104824;1304;74919;-83
2022/08/26 02:34:29;;;;;;;6.70;2.20;;;;;;;28.92;36.64;100214.23;104662;1306;61390;-83
2022/08/26 02:36:55;;;;;;;6.50;2.60;;;;;;;28.92;36.56;100216.19;104786;1305;61523;-80
2022/08/26 02:39:21;;;;;;;5.60;2.50;;;;;;;28.92;36.68;100215.67;104620;1306;74122;-82
2022/08/26 02:41:47;;;;;;;6.50;2.90;;;;;;;28.92;36.65;100217.89;104680;1306;61396;-84
2022/08/26 02:44:12;;;;;;;6.60;2.70;;;;;;;28.92;36.73;100216.94;104600;1306;61471;-84
2022/08/26 02:46:38;;;;;;;5.90;2.50;;;;;;;28.91;36.78;100217.52;104647;1305;61291;-84
2022/08/26 02:49:04;;;;;;;6.00;2.50;;;;;;;28.91;36.33;100217.02;104822;1305;61319;-83
2022/08/26 02:51:29;;;;;;;6.40;2.60;;;;;;;28.92;36.61;100220.03;104820;1305;61324;-83
2022/08/26 02:53:55;;;;;;;6.60;2.50;;;;;;;28.91;36.68;100219.55;104651;1306;61270;-87
2022/08/26 02:56:22;;;;;;;7.40;2.40;;;;;;;28.91;36.50;100216.80;104616;1305;61342;-85
2022/08/26 02:58:47;;;;;;;6.20;2.60;;;;;;;28.91;36.41;100221.86;104644;1305;61411;-82
2022/08/26 03:01:25;;;;;;;6.60;2.80;;;;;;;28.91;36.60;100221.73;104753;1305;61458;-81
2022/08/26 03:03:52;;;;;;;6.80;2.60;;;;;;;28.91;36.71;100221.39;104839;1305;75853;-83
2022/08/26 03:06:17;;;;;;;7.30;3.10;;;;;;;28.91;36.59;100223.39;103298;1306;1857352;-83
2022/08/26 03:08:43;;;;;;;5.50;2.60;;;;;;;28.91;36.56;100225.77;104857;1305;61461;-83
2022/08/26 03:11:10;;;;;;;5.70;2.60;;;;;;;28.91;36.51;100226.14;104789;1305;61226;-83
2022/08/26 03:13:36;;;;;;;5.10;2.30;;;;;;;28.90;36.64;100224.89;104766;1305;61420;-82
2022/08/26 03:16:02;;;;;;;7.70;2.60;;;;;;;28.91;36.66;100229.04;104649;1306;61305;-82
2022/08/26 03:18:29;;;;;;;5.50;2.60;;;;;;;28.91;36.42;100234.83;104683;1306;61272;-82
2022/08/26 03:20:54;;;;;;;5.30;2.20;;;;;;;28.90;36.55;100235.58;104617;1305;61332;-82
2022/08/26 03:23:20;;;;;;;6.30;2.50;;;;;;;28.90;36.41;100236.16;104834;1305;61271;-82
2022/08/26 03:25:49;;;;;;;3.80;2.20;;;;;;;28.90;36.64;100238.34;104602;1306;61408;-83
2022/08/26 03:28:15;;;;;;;5.00;2.50;;;;;;;28.90;36.61;100237.96;104634;1306;61401;-80
2022/08/26 03:30:41;;;;;;;5.80;2.40;;;;;;;28.90;36.74;100238.58;104648;1306;61299;-81
2022/08/26 03:33:09;;;;;;;8.10;2.70;;;;;;;28.90;36.60;100237.26;104609;1306;61269;-89
2022/08/26 03:35:35;;;;;;;6.20;2.50;;;;;;;28.90;36.54;100235.88;104670;1306;74832;-82
2022/08/26 03:38:00;;;;;;;6.40;2.50;;;;;;;28.88;36.33;100234.98;104671;1305;61286;-83
2022/08/26 03:40:26;;;;;;;7.40;2.60;;;;;;;28.86;36.29;100234.04;104774;1305;61303;-83
2022/08/26 03:42:52;;;;;;;8.60;2.90;;;;;;;28.86;36.22;100238.50;104819;1305;61311;-82
2022/08/26 03:45:18;;;;;;;7.50;2.70;;;;;;;28.85;35.89;100236.94;104803;1305;61319;-83
2022/08/26 03:47:43;;;;;;;7.40;2.90;;;;;;;28.84;36.03;100236.13;104843;1305;61349;-82
2022/08/26 03:50:10;;;;;;;6.30;2.70;;;;;;;28.84;35.80;100240.70;104887;1305;61416;-82
2022/08/26 03:52:36;;;;;;;7.60;3.00;;;;;;;28.83;35.56;100238.05;104687;1305;61146;-82
2022/08/26 03:55:03;;;;;;;8.50;3.40;;;;;;;28.82;35.43;100238.70;104887;1305;61154;-83
2022/08/26 03:57:30;;;;;;;10.90;2.90;;;;;;;28.82;35.23;100241.45;104837;1305;74235;-83
2022/08/26 03:59:55;;;;;;;6.90;2.60;;;;;;;28.81;35.16;100244.03;104639;1306;61400;-83
2022/08/26 04:02:21;;;;;;;8.10;2.80;;;;;;;28.80;34.99;100242.89;104792;1305;61292;-83
2022/08/26 04:04:46;;;;;;;6.70;2.90;;;;;;;28.80;34.85;100240.95;104711;1306;61313;-83
2022/08/26 04:07:12;;;;;;;7.50;2.90;;;;;;;28.80;34.64;100240.58;104700;1305;61413;-82
2022/08/26 04:09:37;;;;;;;9.60;2.90;;;;;;;28.79;34.69;100236.13;104686;1306;61393;-86
2022/08/26 04:12:04;;;;;;;11.30;2.60;;;;;;;28.80;34.46;100241.73;104640;1305;61314;-83
2022/08/26 04:14:31;;;;;;;8.70;2.80;;;;;;;28.79;34.56;100238.34;104793;1305;61263;-83
2022/08/26 04:16:56;;;;;;;8.40;3.00;;;;;;;28.79;34.14;100239.66;104641;1306;72642;-85
2022/08/26 04:19:22;;;;;;;5.90;2.80;;;;;;;28.79;34.15;100238.59;104625;1306;61396;-82
2022/08/26 04:21:50;;;;;;;6.70;3.10;;;;;;;28.79;34.02;100242.89;104789;1305;61308;-82
2022/08/26 04:24:15;;;;;;;6.60;3.00;;;;;;;28.78;34.05;100242.99;104649;1306;61321;-83
2022/08/26 04:26:41;;;;;;;9.40;3.30;;;;;;;28.78;34.00;100244.93;104621;1305;61305;-82
2022/08/26 04:29:09;;;;;;;8.30;2.90;;;;;;;28.78;34.05;100245.00;104631;1305;61411;-82
2022/08/26 04:31:35;;;;;;;11.10;2.80;;;;;;;28.77;33.62;100242.18;104637;1306;61276;-82
2022/08/26 04:34:02;;;;;;;7.80;2.90;;;;;;;28.77;33.84;100245.77;104631;1305;61400;-83
2022/08/26 04:36:29;;;;;;;10.00;3.20;;;;;;;28.76;33.69;100248.02;104532;1305;73873;-82
2022/08/26 04:38:55;;;;;;;9.10;3.20;;;;;;;28.77;33.58;100248.15;104456;1303;61286;-82
2022/08/26 04:41:21;;;;;;;9.60;3.10;;;;;;;28.77;33.64;100251.23;104783;1305;61237;-82
2022/08/26 04:43:47;;;;;;;7.60;2.60;;;;;;;28.77;33.52;100247.81;104754;1305;61298;-83
2022/08/26 04:46:16;;;;;;;7.30;3.00;;;;;;;28.77;33.42;100249.04;104622;1306;61310;-83
2022/08/26 04:48:42;;;;;;;6.50;2.70;;;;;;;28.76;33.31;100247.85;104638;1306;74821;-84
2022/08/26 04:51:08;;;;;;;7.50;3.00;;;;;;;28.76;33.39;100249.73;104852;1305;61384;-83
2022/08/26 04:53:34;;;;;;;13.40;3.20;;;;;;;28.75;33.15;100245.67;104655;1305;61309;-82
2022/08/26 04:55:59;;;;;;;25.30;3.80;;;;;;;28.74;33.17;100247.89;104762;1305;61377;-82
2022/08/26 04:58:25;;;;;;;8.70;2.90;;;;;;;28.74;32.97;100247.31;104766;1305;61272;-82
2022/08/26 05:00:52;;;;;;;38.40;4.70;;;;;;;28.75;32.90;100248.37;104805;1305;61282;-83
2022/08/26 05:03:17;;;;;;;18.00;3.30;;;;;;;28.74;33.08;100243.21;104771;1305;61209;-83
2022/08/26 05:05:44;;;;;;;32.60;4.90;;;;;;;28.74;33.34;100246.30;104773;1304;61337;-82
2022/08/26 05:08:10;;;;;;;21.20;4.10;;;;;;;28.74;33.38;100245.28;104649;1306;61257;-83
2022/08/26 05:10:44;;;;;;;12.20;3.30;;;;;;;28.72;33.07;100244.70;104604;1305;61728;-82
2022/08/26 05:13:11;;;;;;;20.30;3.70;;;;;;;28.71;32.86;100246.48;104610;1305;61498;-81
2022/08/26 05:15:36;;;;;;;14.60;3.40;;;;;;;28.70;32.94;100243.11;104546;1305;61153;-81
2022/08/26 05:18:03;;;;;;;14.70;3.30;;;;;;;28.71;33.10;100244.27;104342;1305;61410;-82
2022/08/26 05:20:29;;;;;;;15.50;3.20;;;;;;;28.71;32.95;100243.02;104736;1305;61272;-84
2022/08/26 05:22:54;;;;;;;8.90;2.90;;;;;;;28.72;32.81;100241.34;104587;1305;61429;-83
2022/08/26 05:25:20;;;;;;;9.80;3.20;;;;;;;28.72;32.77;100245.11;104749;1305;61170;-84
2022/08/26 05:27:45;;;;;;;10.30;3.10;;;;;;;28.71;32.88;100244.30;104627;1305;61305;-80
2022/08/26 05:30:11;;;;;;;11.10;3.10;;;;;;;28.70;32.45;100247.09;104664;1305;61307;-82
2022/08/26 05:32:37;;;;;;;11.10;3.10;;;;;;;28.69;32.49;100249.94;104566;1305;74633;-82
2022/08/26 05:35:02;;;;;;;12.50;3.40;;;;;;;28.68;32.34;100248.42;104641;1305;61303;-81
2022/08/26 05:37:28;;;;;;;11.70;3.30;;;;;;;28.69;32.39;100248.55;104411;1305;61262;-81
2022/08/26 05:39:54;;;;;;;14.30;3.50;;;;;;;28.69;32.35;100250.92;104530;1305;61302;-82
2022/08/26 05:42:20;;;;;;;11.10;3.20;;;;;;;28.69;32.48;100254.73;104466;1305;61307;-81
2022/08/26 05:44:51;;;;;;;12.20;2.80;;;;;;;28.69;32.33;100255.17;105019;1304;61629;-82
2022/08/26 05:47:17;;;;;;;9.40;3.10;;;;;;;28.70;32.43;100254.70;104629;1306;61378;-81
2022/08/26 05:49:42;;;;;;;14.90;3.50;;;;;;;28.72;32.12;100254.36;104658;1305;61226;-81
2022/08/26 05:52:08;;;;;;;19.40;3.70;;;;;;;28.72;32.05;100255.02;104630;1305;62107;-81
2022/08/26 05:54:33;;;;;;;15.00;3.70;;;;;;;28.73;31.97;100252.27;104523;1306;61378;-83
2022/08/26 05:56:59;;;;;;;17.40;3.40;;;;;;;28.74;32.24;100253.43;104748;1305;61415;-83
2022/08/26 05:59:25;;;;;;;13.50;3.50;;;;;;;28.74;32.14;100254.24;104634;1306;61397;-83
2022/08/26 06:01:53;;;;;;;12.30;3.20;;;;;;;28.75;32.00;100254.85;104628;1307;72743;-82
2022/08/26 06:04:19;;;;;;;12.10;3.30;;;;;;;28.76;31.91;100253.15;104632;1305;75781;-82
2022/08/26 06:06:44;;;;;;;10.90;3.30;;;;;;;28.77;31.82;100254.64;104676;1306;61480;-80
2022/08/26 06:09:10;;;;;;;13.10;3.10;;;;;;;28.78;31.71;100254.64;104536;1307;61305;-82
2022/08/26 06:11:35;;;;;;;13.50;3.80;;;;;;;28.79;31.72;100258.14;104838;1304;61361;-83
2022/08/26 06:14:02;;;;;;;12.30;3.50;;;;;;;28.78;31.79;100258.16;104661;1305;61198;-83
2022/08/26 06:16:28;;;;;;;178.60;12.20;;;;;;;28.78;31.57;100262.52;104836;1305;61298;-83
2022/08/26 06:18:54;;;;;;;31.30;4.90;;;;;;;28.79;31.67;100264.23;104702;1305;61329;-82
2022/08/26 06:21:24;;;;;;;28.30;4.60;;;;;;;28.80;31.61;100267.45;104705;1305;61292;-82
2022/08/26 06:26:36;;;;;;;25.00;4.20;;;;;;;28.81;31.87;100260.91;104774;1305;76143;-82
2022/08/26 06:29:02;;;;;;;8.30;3.00;;;;;;;28.81;31.69;100264.52;104649;1305;61423;-82
2022/08/26 06:31:28;;;;;;;17.30;3.30;;;;;;;28.81;31.76;100267.40;104693;1305;61182;-82
2022/08/26 06:33:54;;;;;;;15.00;3.80;;;;;;;28.82;31.79;100265.13;104634;1305;79273;-80
2022/08/26 06:36:23;;;;;;;15.70;3.50;;;;;;;28.83;31.81;100267.39;104630;1306;61294;-84
2022/08/26 06:38:48;;;;;;;13.40;3.70;;;;;;;28.84;31.98;100267.86;104666;1305;61697;-81
2022/08/26 06:41:15;;;;;;;15.50;4.30;;;;;;;28.84;31.69;100263.11;104862;1305;61376;-82
2022/08/26 06:43:43;;;;;;;19.70;3.60;;;;;;;28.85;31.85;100264.64;104634;1306;72671;-84
2022/08/26 06:46:11;;;;;;;18.10;4.10;;;;;;;28.86;31.87;100267.58;104619;1305;62849;-84
2022/08/26 06:48:36;;;;;;;13.80;3.80;;;;;;;28.87;31.78;100265.14;104713;1306;61187;-83
2022/08/26 06:51:11;;;;;;;13.90;3.70;;;;;;;28.88;31.90;100267.38;104706;1306;61265;-82
2022/08/26 06:53:37;;;;;;;11.30;3.60;;;;;;;28.89;31.64;100261.89;104745;1305;73910;-82
2022/08/26 06:56:04;;;;;;;8.60;3.50;;;;;;;28.89;31.68;100260.71;104634;1305;61346;-83
2022/08/26 06:58:30;;;;;;;12.10;4.00;;;;;;;28.90;31.87;100258.61;104661;1305;59852;-83
2022/08/26 07:00:56;;;;;;;16.30;4.30;;;;;;;28.90;31.66;100258.41;104583;1305;61378;-82
2022/08/26 07:03:21;;;;;;;11.80;3.50;;;;;;;28.92;31.66;100257.52;104504;1305;61336;-82
2022/08/26 07:05:48;;;;;;;13.70;3.50;;;;;;;28.92;31.79;100255.82;104536;1305;61451;-83
2022/08/26 07:08:15;;;;;;;12.40;3.60;;;;;;;28.92;31.65;100254.54;104602;1305;61308;-83
2022/08/26 07:10:41;;;;;;;9.10;3.20;;;;;;;28.94;31.57;100249.33;104602;1305;61458;-82
2022/08/26 07:13:07;;;;;;;13.50;3.60;;;;;;;28.95;31.72;100249.39;104433;1306;61337;-82
2022/08/26 07:15:34;;;;;;;10.30;3.30;;;;;;;28.96;31.63;100250.06;104286;1305;61424;-82
2022/08/26 07:18:01;;;;;;;10.00;4.00;;;;;;;28.97;31.76;100246.67;104468;1306;61144;-82
2022/08/26 07:20:27;;;;;;;11.40;2.90;;;;;;;28.98;31.77;100243.80;104272;1305;61310;-81
2022/08/26 07:22:53;;;;;;;9.30;3.30;;;;;;;28.99;31.77;100244.29;104364;1305;61269;-82
2022/08/26 07:25:18;;;;;;;12.30;3.20;;;;;;;29.00;31.69;100241.08;104264;1305;61300;-83
2022/08/26 07:27:44;;;;;;;9.10;3.40;;;;;;;29.01;31.77;100243.51;104359;1305;61209;-82
2022/08/26 07:30:10;;;;;;;10.00;3.20;;;;;;;29.01;31.70;100243.77;104606;1305;61286;-83
2022/08/26 07:32:36;;;;;;;10.40;3.20;;;;;;;29.02;31.64;100248.21;104737;1305;61433;-82
2022/08/26 07:35:03;;;;;;;7.40;3.00;;;;;;;29.03;31.45;100250.48;104617;1305;61304;-83
2022/08/26 07:37:28;;;;;;;9.50;3.10;;;;;;;29.03;31.67;100249.92;104630;1305;61385;-82
2022/08/26 07:39:54;;;;;;;9.10;3.00;;;;;;;29.04;31.63;100251.51;104625;1305;61497;-82
2022/08/26 07:42:20;;;;;;;10.70;3.40;;;;;;;29.04;31.64;100251.64;104453;1305;61394;-83
2022/08/26 07:44:45;;;;;;;6.80;3.00;;;;;;;29.04;31.48;100248.00;104351;1305;61408;-83
2022/08/26 07:47:11;;;;;;;9.20;3.20;;;;;;;29.04;31.69;100248.21;104425;1305;61235;-83
2022/08/26 07:49:37;;;;;;;8.40;3.00;;;;;;;29.04;31.56;100249.25;104389;1306;61398;-83
2022/08/26 07:52:03;;;;;;;7.70;2.80;;;;;;;29.05;31.46;100243.96;104546;1305;61291;-82
2022/08/26 07:54:29;;;;;;;8.20;3.10;;;;;;;29.05;31.66;100244.98;104591;1305;61690;-84
2022/08/26 07:56:54;;;;;;;8.70;3.00;;;;;;;29.05;31.60;100244.23;104487;1306;61359;-84
2022/08/26 07:59:20;;;;;;;8.20;2.90;;;;;;;29.05;31.68;100240.79;104257;1307;61307;-83
2022/08/26 08:01:45;;;;;;;7.30;2.90;;;;;;;29.05;31.48;100247.83;104539;1304;61355;-83
2022/08/26 08:04:13;;;;;;;10.70;3.50;;;;;;;29.05;31.47;100238.80;104567;1306;61417;-83
2022/08/26 08:06:38;;;;;;;8.60;2.90;;;;;;;29.05;31.32;100236.61;104802;1305;61082;-82
2022/08/26 08:09:04;;;;;;;9.80;3.20;;;;;;;29.05;31.18;100233.77;104614;1306;61403;-82
2022/08/26 08:11:30;;;;;;;7.80;3.00;;;;;;;29.05;31.25;100234.67;104271;1306;61752;-82
2022/08/26 08:13:56;;;;;;;9.40;3.40;;;;;;;29.04;31.30;100230.20;104415;1305;61438;-82
2022/08/26 08:16:23;;;;;;;8.00;2.90;;;;;;;29.04;31.19;100225.52;104415;1305;61303;-82
2022/08/26 08:18:48;;;;;;;8.00;3.20;;;;;;;29.05;31.34;100217.45;104571;1305;61200;-82
2022/08/26 08:21:14;;;;;;;11.00;3.30;;;;;;;29.05;31.42;100215.13;104453;1305;61308;-81
2022/08/26 08:23:39;;;;;;;11.60;3.50;;;;;;;29.05;31.48;100219.02;104543;1305;61362;-82
2022/08/26 08:26:07;;;;;;;9.10;2.90;;;;;;;29.06;31.05;100215.13;104431;1305;61270;-82
2022/08/26 08:28:33;;;;;;;10.80;3.30;;;;;;;29.07;31.16;100212.90;104746;1305;61368;-82
2022/08/26 08:30:58;;;;;;;7.20;3.10;;;;;;;29.07;31.08;100209.61;104557;1305;61426;-82
2022/08/26 08:33:24;;;;;;;7.00;2.70;;;;;;;29.08;31.25;100212.05;104782;1305;61247;-82
2022/08/26 08:35:51;;;;;;;9.10;2.90;;;;;;;29.08;31.17;100207.21;104473;1305;61290;-82
2022/08/26 08:38:17;;;;;;;7.60;3.40;;;;;;;29.08;31.26;100201.73;104563;1305;61264;-82
2022/08/26 08:40:43;;;;;;;8.40;2.90;;;;;;;29.08;31.09;100199.92;104532;1305;61291;-83
2022/08/26 08:43:12;;;;;;;9.40;2.90;;;;;;;29.08;31.31;100200.44;104473;1305;61368;-80
2022/08/26 08:45:46;;;;;;;9.00;2.90;;;;;;;29.08;30.96;100198.80;104722;1305;61461;-82
2022/08/26 08:48:24;;;;;;;5.80;2.80;;;;;;;29.08;30.99;100194.45;104750;1307;61152;-82
2022/08/26 08:50:54;;;;;;;6.50;2.90;;;;;;;29.09;30.98;100195.98;104718;1305;72709;-83
2022/08/26 08:53:36;;;;;;;6.10;2.90;;;;;;;29.09;31.08;100192.35;104737;1304;74922;-82
2022/08/26 08:56:15;;;;;;;8.90;3.00;;;;;;;29.09;30.91;100187.63;104429;1307;61344;-83
2022/08/26 08:59:07;;;;;;;10.40;3.00;;;;;;;29.09;31.03;100187.83;104663;1305;61301;-82
2022/08/26 09:01:54;;;;;;;7.30;2.80;;;;;;;29.09;30.89;100192.51;104666;1305;73615;-82
2022/08/26 09:04:42;;;;;;;6.20;2.50;;;;;;;29.09;30.92;100190.13;104723;1305;74819;-83
2022/08/26 09:07:11;;;;;;;5.80;2.60;;;;;;;29.09;30.99;100189.05;104563;1305;61391;-82
2022/08/26 09:10:15;;;;;;;5.90;2.70;;;;;;;29.09;31.14;100187.32;104473;1305;61553;-82
2022/08/26 09:12:41;;;;;;;7.20;2.80;;;;;;;29.09;31.19;100195.59;104536;1305;72785;-82
2022/08/26 09:15:15;;;;;;;7.00;2.80;;;;;;;29.09;31.14;100192.75;104381;1307;61497;-82
2022/08/26 09:18:04;;;;;;;7.60;2.80;;;;;;;29.09;31.17;100187.59;104394;1308;61570;-82
2022/08/26 09:20:38;;;;;;;;;;;;;;;29.09;31.11;100181.27;104146;1308;61501;-81
2022/08/26 09:23:04;;;;;;;6.20;2.50;;;;;;;29.08;31.23;100184.33;104401;1305;72839;-83
2022/08/26 09:25:29;;;;;;;6.70;2.90;;;;;;;29.09;31.24;100187.08;104516;1304;61302;-81
2022/08/26 09:27:55;;;;;;;9.30;3.00;;;;;;;29.10;31.35;100181.60;104327;1308;62401;-83
2022/08/26 09:30:26;;;;;;;9.10;3.10;;;;;;;29.10;31.38;100176.47;104555;1305;61390;-82
2022/08/26 09:33:03;;;;;;;5.20;2.80;;;;;;;29.11;31.52;100179.13;104840;1305;72788;-81
2022/08/26 09:35:37;;;;;;;8.90;2.90;;;;;;;29.11;31.40;100175.45;104302;1305;75145;-82
2022/08/26 09:38:25;;;;;;;6.50;3.20;;;;;;;29.12;31.28;100180.31;104497;1305;61332;-82
2022/08/26 09:41:01;;;;;;;5.60;2.80;;;;;;;29.12;31.30;100175.17;104694;1305;61619;-82
2022/08/26 09:43:27;;;;;;;6.70;3.00;;;;;;;29.12;31.44;100173.88;104385;1308;72850;-83
2022/08/26 09:46:24;;;;;;;7.30;3.10;;;;;;;29.12;31.39;100169.91;104613;1305;61313;-82
2022/08/26 09:48:49;;;;;;;8.80;2.80;;;;;;;29.13;31.43;100168.04;104101;1314;61323;-82
2022/08/26 09:51:25;;;;;;;7.00;2.60;;;;;;;29.14;31.23;100160.70;104087;1314;60636;-81
2022/08/26 09:53:55;;;;;;;7.30;2.90;;;;;;;29.14;31.19;100167.36;104171;1314;72699;-81
2022/08/26 09:56:20;;;;;;;5.30;2.60;;;;;;;29.14;31.16;100167.69;104028;1314;76089;-82
2022/08/26 09:58:46;;;;;;;6.30;2.90;;;;;;;29.14;31.43;100169.83;104086;1313;61501;-82
2022/08/26 10:01:26;;;;;;;5.80;2.90;;;;;;;29.15;31.50;100163.81;103583;1313;62612;-83
2022/08/26 10:03:52;;;;;;;4.30;2.60;;;;;;;29.15;31.39;100163.06;103896;1311;74073;-82
2022/08/26 10:06:18;;;;;;;5.10;2.40;;;;;;;29.15;31.53;100157.80;103906;1314;61385;-81
2022/08/26 10:08:46;;;;;;;7.50;3.00;;;;;;;29.15;31.38;100158.85;104088;1314;61414;-82
2022/08/26 10:11:38;;;;;;;7.90;3.20;;;;;;;29.15;31.38;100157.02;103751;1314;61470;-82
2022/08/26 10:14:09;;;;;;;6.70;2.80;;;;;;;29.16;31.58;100149.17;103616;1314;72904;-82
2022/08/26 10:16:42;;;;;;;6.70;3.10;;;;;;;29.16;31.51;100144.30;104095;1314;74700;-82
2022/08/26 10:19:10;;;;;;;7.40;2.50;;;;;;;29.16;31.33;100141.73;104143;1314;61309;-83
2022/08/26 10:21:59;;;;;;;5.30;2.90;;;;;;;29.16;31.32;100140.61;104176;1314;61322;-83
2022/08/26 10:24:29;;;;;;;7.40;2.80;;;;;;;29.16;31.42;100138.26;104202;1314;73230;-84
2022/08/26 10:26:58;;;;;;;7.10;2.70;;;;;;;29.16;31.49;100138.84;104700;1305;75689;-83
2022/08/26 10:29:47;;;;;;;6.90;2.80;;;;;;;29.16;31.43;100134.50;104765;1305;61171;-83
2022/08/26 10:32:15;;;;;;;;;;;;;;;29.16;31.47;100137.23;104565;1305;61440;-83
2022/08/26 10:34:41;;;;;;;6.00;2.60;;;;;;;29.13;31.40;100131.20;104753;1305;73748;-82
2022/08/26 10:37:10;;;;;;;6.30;2.90;;;;;;;29.14;31.65;100136.88;104618;1308;61273;-84
2022/08/26 10:39:45;;;;;;;7.40;3.00;;;;;;;29.14;31.40;100131.89;104474;1305;61155;-81
2022/08/26 10:42:26;;;;;;;5.40;3.00;;;;;;;29.14;31.64;100126.45;104344;1305;61299;-82
2022/08/26 10:44:54;;;;;;;6.30;2.80;;;;;;;29.14;31.65;100124.59;104576;1305;72834;-81
2022/08/26 10:47:27;;;;;;;6.00;2.60;;;;;;;29.14;31.66;100129.44;104430;1305;75975;-83
2022/08/26 10:49:52;;;;;;;6.40;2.70;;;;;;;29.15;31.77;100132.65;104497;1305;61567;-85
2022/08/26 10:52:52;;;;;;;7.80;2.90;;;;;;;29.14;31.85;100127.27;104570;1308;61511;-83
2022/08/26 10:55:39;;;;;;;4.50;2.70;;;;;;;29.15;31.78;100125.25;104608;1305;72984;-83
2022/08/26 10:58:44;;;;;;;5.50;2.70;;;;;;;29.15;31.95;100131.00;104621;1305;74938;-83
2022/08/26 11:04:11;;;;;;;5.90;2.70;;;;;;;29.15;31.96;100124.17;104635;1305;61276;-82
2022/08/26 11:06:37;;;;;;;5.80;2.70;;;;;;;29.15;31.93;100117.45;104736;1305;73107;-83
2022/08/26 11:09:04;;;;;;;5.50;2.90;;;;;;;29.15;32.30;100120.00;104636;1305;61702;-83
2022/08/26 11:11:39;;;;;;;6.30;2.70;;;;;;;29.15;32.16;100115.23;104652;1303;60017;-82
2022/08/26 11:14:08;;;;;;;5.80;2.70;;;;;;;29.15;32.23;100115.20;104580;1308;61313;-82
2022/08/26 11:16:48;;;;;;;6.40;2.90;;;;;;;29.15;32.08;100110.72;104581;1305;73302;-81
2022/08/26 11:19:29;;;;;;;5.10;2.70;;;;;;;29.14;32.11;100110.45;104605;1305;75695;-84
2022/08/26 11:22:20;;;;;;;7.60;2.70;;;;;;;29.15;32.11;100109.67;104647;1305;61397;-83
2022/08/26 11:24:55;;;;;;;6.40;2.60;;;;;;;29.14;32.25;100109.91;104557;1305;61204;-82
2022/08/26 11:27:24;;;;;;;7.50;3.10;;;;;;;29.15;32.44;100108.20;104768;1305;72687;-82
2022/08/26 11:30:08;;;;;;;6.70;3.10;;;;;;;29.14;32.22;100109.33;104631;1306;73743;-83